sensor_id;sensor_type;location;lat;lon;timestamp;pressure;altitude;pressure_sealevel;temperature;humidity
70521;BME280;58442;52.716;23.560;2024-02-15T00:00:01;102218.14;;;2.09;75.65
70521;BME280;58442;52.716;23.560;2024-02-15T00:00:15;102222.70;;;2.09;75.66
70521;BME280;58442;52.716;23.560;2024-02-15T00:00:32;102227.79;;;2.10;75.66
70521;BME280;58442;52.716;23.560;2024-02-15T00:00:52;102228.60;;;2.11;75.65
70521;BME280;58442;52.716;23.560;2024-02-15T00:01:09;102220.55;;;2.11;75.65
70521;BME280;58442;52.716;23.560;2024-02-15T00:01:23;102228.60;;;2.11;75.65
70521;BME280;58442;52.716;23.560;2024-02-15T00:01:35;102224.04;;;2.11;75.64
70521;BME280;58442;52.716;23.560;2024-02-15T00:01:46;102225.66;;;2.12;75.64
70521;BME280;58442;52.716;23.560;2024-02-15T00:01:57;102221.36;;;2.11;75.61
70521;BME280;58442;52.716;23.560;2024-02-15T00:02:08;102221.36;;;2.11;75.61
70521;BME280;58442;52.716;23.560;2024-02-15T00:02:19;102232.91;;;2.12;75.61
70521;BME280;58442;52.716;23.560;2024-02-15T00:02:30;102225.66;;;2.12;75.63
70521;BME280;58442;52.716;23.560;2024-02-15T00:02:42;102229.41;;;2.11;75.60
70521;BME280;58442;52.716;23.560;2024-02-15T00:02:55;102218.68;;;2.11;75.59
70521;BME280;58442;52.716;23.560;2024-02-15T00:03:09;102225.66;;;2.12;75.60
70521;BME280;58442;52.716;23.560;2024-02-15T00:03:24;102231.02;;;2.12;75.59
70521;BME280;58442;52.716;23.560;2024-02-15T00:03:35;102224.85;;;2.12;75.58
70521;BME280;58442;52.716;23.560;2024-02-15T00:03:47;102230.22;;;2.12;75.58
70521;BME280;58442;52.716;23.560;2024-02-15T00:04:00;102224.85;;;2.12;75.56
70521;BME280;58442;52.716;23.560;2024-02-15T00:04:12;102222.17;;;2.12;75.57
70521;BME280;58442;52.716;23.560;2024-02-15T00:04:23;102223.23;;;2.11;75.57
70521;BME280;58442;52.716;23.560;2024-02-15T00:04:34;102227.54;;;2.12;75.58
70521;BME280;58442;52.716;23.560;2024-02-15T00:04:46;102231.87;;;2.13;75.57
70521;BME280;58442;52.716;23.560;2024-02-15T00:04:57;102225.66;;;2.12;75.57
70521;BME280;58442;52.716;23.560;2024-02-15T00:05:09;102232.09;;;2.11;75.56
70521;BME280;58442;52.716;23.560;2024-02-15T00:05:20;102223.23;;;2.11;75.57
70521;BME280;58442;52.716;23.560;2024-02-15T00:05:32;102223.23;;;2.11;75.57
70521;BME280;58442;52.716;23.560;2024-02-15T00:05:43;102235.58;;;2.12;75.39
70521;BME280;58442;52.716;23.560;2024-02-15T00:05:57;102225.91;;;2.11;75.58
70521;BME280;58442;52.716;23.560;2024-02-15T00:06:08;102233.97;;;2.11;75.58
70521;BME280;58442;52.716;23.560;2024-02-15T00:06:19;102231.29;;;2.11;75.59
70521;BME280;58442;52.716;23.560;2024-02-15T00:06:31;102224.04;;;2.11;75.58
70521;BME280;58442;52.716;23.560;2024-02-15T00:06:42;102227.79;;;2.10;75.59
70521;BME280;58442;52.716;23.560;2024-02-15T00:06:53;102230.48;;;2.10;75.60
70521;BME280;58442;52.716;23.560;2024-02-15T00:07:04;102219.75;;;2.10;75.59
70521;BME280;58442;52.716;23.560;2024-02-15T00:07:16;102230.48;;;2.10;75.61
70521;BME280;58442;52.716;23.560;2024-02-15T00:07:27;102227.79;;;2.10;75.59
70521;BME280;58442;52.716;23.560;2024-02-15T00:07:38;102220.55;;;2.11;75.60
70521;BME280;58442;52.716;23.560;2024-02-15T00:07:50;102225.11;;;2.10;75.61
70521;BME280;58442;52.716;23.560;2024-02-15T00:08:01;102227.79;;;2.10;75.61
70521;BME280;58442;52.716;23.560;2024-02-15T00:08:12;102227.79;;;2.10;75.61
70521;BME280;58442;52.716;23.560;2024-02-15T00:08:25;102229.66;;;2.10;75.61
70521;BME280;58442;52.716;23.560;2024-02-15T00:08:37;102231.29;;;2.11;75.61
70521;BME280;58442;52.716;23.560;2024-02-15T00:08:49;102227.79;;;2.10;75.62
70521;BME280;58442;52.716;23.560;2024-02-15T00:09:02;102223.51;;;2.09;75.62
70521;BME280;58442;52.716;23.560;2024-02-15T00:09:14;102229.66;;;2.10;75.62
70521;BME280;58442;52.716;23.560;2024-02-15T00:09:25;102224.30;;;2.10;75.63
70521;BME280;58442;52.716;23.560;2024-02-15T00:09:37;102231.54;;;2.09;75.63
70521;BME280;58442;52.716;23.560;2024-02-15T00:09:48;102233.16;;;2.10;75.63
70521;BME280;58442;52.716;23.560;2024-02-15T00:10:00;102228.06;;;2.09;75.47
70521;BME280;58442;52.716;23.560;2024-02-15T00:10:11;102230.48;;;2.10;75.62
70521;BME280;58442;52.716;23.560;2024-02-15T00:10:22;102228.87;;;2.09;75.62
70521;BME280;58442;52.716;23.560;2024-02-15T00:10:35;102231.54;;;2.09;75.62
70521;BME280;58442;52.716;23.560;2024-02-15T00:10:47;102234.22;;;2.09;75.62
70521;BME280;58442;52.716;23.560;2024-02-15T00:10:58;102230.73;;;2.09;75.63
70521;BME280;58442;52.716;23.560;2024-02-15T00:11:09;102229.92;;;2.08;75.63
70521;BME280;58442;52.716;23.560;2024-02-15T00:11:20;102232.35;;;2.10;75.64
70521;BME280;58442;52.716;23.560;2024-02-15T00:11:32;102231.54;;;2.09;75.64
70521;BME280;58442;52.716;23.560;2024-02-15T00:11:44;102226.18;;;2.09;75.64
70521;BME280;58442;52.716;23.560;2024-02-15T00:11:56;102230.48;;;2.10;75.66
70521;BME280;58442;52.716;23.560;2024-02-15T00:12:08;102226.18;;;2.09;75.66
70521;BME280;58442;52.716;23.560;2024-02-15T00:12:19;102229.92;;;2.08;75.67
70521;BME280;58442;52.716;23.560;2024-02-15T00:12:32;102233.42;;;2.09;75.67
70521;BME280;58442;52.716;23.560;2024-02-15T00:12:43;102227.25;;;2.08;75.66
70521;BME280;58442;52.716;23.560;2024-02-15T00:12:54;102223.76;;;2.08;75.84
70521;BME280;58442;52.716;23.560;2024-02-15T00:13:06;102228.87;;;2.09;75.67
70521;BME280;58442;52.716;23.560;2024-02-15T00:13:17;102226.18;;;2.09;75.67
70521;BME280;58442;52.716;23.560;2024-02-15T00:13:28;102231.54;;;2.09;75.66
70521;BME280;58442;52.716;23.560;2024-02-15T00:13:41;102227.25;;;2.08;75.67
70521;BME280;58442;52.716;23.560;2024-02-15T00:13:52;102229.92;;;2.08;75.69
70521;BME280;58442;52.716;23.560;2024-02-15T00:14:03;102230.73;;;2.09;75.69
70521;BME280;58442;52.716;23.560;2024-02-15T00:14:14;102229.92;;;2.08;75.69
70521;BME280;58442;52.716;23.560;2024-02-15T00:14:26;102230.73;;;2.09;75.69
70521;BME280;58442;52.716;23.560;2024-02-15T00:14:39;102223.51;;;2.09;75.69
70521;BME280;58442;52.716;23.560;2024-02-15T00:14:51;102228.06;;;2.09;75.71
70521;BME280;58442;52.716;23.560;2024-02-15T00:15:02;102232.35;;;2.10;75.71
70521;BME280;58442;52.716;23.560;2024-02-15T00:15:15;102229.66;;;2.10;75.71
70521;BME280;58442;52.716;23.560;2024-02-15T00:15:26;102232.35;;;2.10;75.71
70521;BME280;58442;52.716;23.560;2024-02-15T00:15:37;102234.22;;;2.09;75.70
70521;BME280;58442;52.716;23.560;2024-02-15T00:15:48;102226.18;;;2.09;75.70
70521;BME280;58442;52.716;23.560;2024-02-15T00:16:01;102232.35;;;2.10;75.69
70521;BME280;58442;52.716;23.560;2024-02-15T00:16:15;102233.16;;;2.10;75.70
70521;BME280;58442;52.716;23.560;2024-02-15T00:16:27;102233.16;;;2.10;75.70
70521;BME280;58442;52.716;23.560;2024-02-15T00:16:38;102230.48;;;2.10;75.71
70521;BME280;58442;52.716;23.560;2024-02-15T00:16:50;102230.48;;;2.10;75.71
70521;BME280;58442;52.716;23.560;2024-02-15T00:17:01;102230.48;;;2.10;75.72
70521;BME280;58442;52.716;23.560;2024-02-15T00:17:13;102233.97;;;2.11;75.72
70521;BME280;58442;52.716;23.560;2024-02-15T00:17:29;102235.84;;;2.10;75.72
70521;BME280;58442;52.716;23.560;2024-02-15T00:17:41;102233.16;;;2.10;75.70
70521;BME280;58442;52.716;23.560;2024-02-15T00:17:52;102233.16;;;2.10;75.71
70521;BME280;58442;52.716;23.560;2024-02-15T00:18:04;102233.16;;;2.10;75.70
70521;BME280;58442;52.716;23.560;2024-02-15T00:18:15;102231.29;;;2.11;75.71
70521;BME280;58442;52.716;23.560;2024-02-15T00:18:36;102227.79;;;2.10;75.70
70521;BME280;58442;52.716;23.560;2024-02-15T00:18:48;102232.09;;;2.11;75.70
70521;BME280;58442;52.716;23.560;2024-02-15T00:19:01;102235.84;;;2.10;75.70
70521;BME280;58442;52.716;23.560;2024-02-15T00:19:17;102233.16;;;2.10;75.69
70521;BME280;58442;52.716;23.560;2024-02-15T00:19:29;102234.77;;;2.11;75.69
70521;BME280;58442;52.716;23.560;2024-02-15T00:19:41;102229.41;;;2.11;75.72
70521;BME280;58442;52.716;23.560;2024-02-15T00:19:52;102232.09;;;2.11;75.74
70521;BME280;58442;52.716;23.560;2024-02-15T00:20:04;102229.41;;;2.11;75.70
70521;BME280;58442;52.716;23.560;2024-02-15T00:20:20;102232.09;;;2.11;75.70
70521;BME280;58442;52.716;23.560;2024-02-15T00:20:31;102234.54;;;2.13;75.71
70521;BME280;58442;52.716;23.560;2024-02-15T00:20:45;102228.34;;;2.12;75.69
70521;BME280;58442;52.716;23.560;2024-02-15T00:20:56;102227.54;;;2.12;75.68
70521;BME280;58442;52.716;23.560;2024-02-15T00:21:07;102224.04;;;2.11;75.68
70521;BME280;58442;52.716;23.560;2024-02-15T00:21:18;102231.02;;;2.12;75.68
70521;BME280;58442;52.716;23.560;2024-02-15T00:21:29;102234.54;;;2.13;75.68
70521;BME280;58442;52.716;23.560;2024-02-15T00:21:43;102230.22;;;2.12;75.67
70521;BME280;58442;52.716;23.560;2024-02-15T00:21:54;102234.77;;;2.11;75.66
70521;BME280;58442;52.716;23.560;2024-02-15T00:22:07;102234.77;;;2.11;75.67
70521;BME280;58442;52.716;23.560;2024-02-15T00:22:18;102229.41;;;2.11;75.67
70521;BME280;58442;52.716;23.560;2024-02-15T00:22:32;102230.22;;;2.12;75.67
70521;BME280;58442;52.716;23.560;2024-02-15T00:22:44;102234.77;;;2.11;75.68
70521;BME280;58442;52.716;23.560;2024-02-15T00:22:56;102230.48;;;2.10;75.69
70521;BME280;58442;52.716;23.560;2024-02-15T00:23:07;102230.22;;;2.12;75.69
70521;BME280;58442;52.716;23.560;2024-02-15T00:23:18;102231.29;;;2.11;75.70
70521;BME280;58442;52.716;23.560;2024-02-15T00:23:29;102232.09;;;2.11;75.70
70521;BME280;58442;52.716;23.560;2024-02-15T00:23:41;102232.09;;;2.11;75.70
70521;BME280;58442;52.716;23.560;2024-02-15T00:23:53;102234.77;;;2.11;75.71
70521;BME280;58442;52.716;23.560;2024-02-15T00:24:07;102236.65;;;2.11;75.71
70521;BME280;58442;52.716;23.560;2024-02-15T00:24:18;102237.45;;;2.11;75.72
70521;BME280;58442;52.716;23.560;2024-02-15T00:24:30;102232.35;;;2.10;75.72
70521;BME280;58442;52.716;23.560;2024-02-15T00:24:42;102238.52;;;2.10;75.73
70521;BME280;58442;52.716;23.560;2024-02-15T00:24:55;102228.60;;;2.11;75.75
70521;BME280;58442;52.716;23.560;2024-02-15T00:25:07;102232.09;;;2.11;75.75
70521;BME280;58442;52.716;23.560;2024-02-15T00:25:19;102229.41;;;2.11;75.75
70521;BME280;58442;52.716;23.560;2024-02-15T00:25:32;102230.73;;;2.09;75.51
70521;BME280;58442;52.716;23.560;2024-02-15T00:25:43;102231.29;;;2.11;75.76
70521;BME280;58442;52.716;23.560;2024-02-15T00:25:55;102228.60;;;2.11;75.76
70521;BME280;58442;52.716;23.560;2024-02-15T00:26:06;102228.60;;;2.11;75.77
70521;BME280;58442;52.716;23.560;2024-02-15T00:26:18;102235.84;;;2.10;75.77
70521;BME280;58442;52.716;23.560;2024-02-15T00:26:30;102233.97;;;2.11;75.77
70521;BME280;58442;52.716;23.560;2024-02-15T00:26:42;102229.41;;;2.11;75.78
70521;BME280;58442;52.716;23.560;2024-02-15T00:26:53;102234.77;;;2.11;75.77
70521;BME280;58442;52.716;23.560;2024-02-15T00:27:05;102229.41;;;2.11;75.77
70521;BME280;58442;52.716;23.560;2024-02-15T00:27:16;102227.54;;;2.12;75.77
70521;BME280;58442;52.716;23.560;2024-02-15T00:27:27;102228.60;;;2.11;75.76
70521;BME280;58442;52.716;23.560;2024-02-15T00:27:39;102231.29;;;2.11;75.77
70521;BME280;58442;52.716;23.560;2024-02-15T00:27:50;102229.41;;;2.11;75.76
70521;BME280;58442;52.716;23.560;2024-02-15T00:28:01;102228.60;;;2.11;75.76
70521;BME280;58442;52.716;23.560;2024-02-15T00:28:13;102230.22;;;2.12;75.76
70521;BME280;58442;52.716;23.560;2024-02-15T00:28:24;102230.22;;;2.12;75.76
70521;BME280;58442;52.716;23.560;2024-02-15T00:28:37;102231.29;;;2.11;75.76
70521;BME280;58442;52.716;23.560;2024-02-15T00:28:48;102232.09;;;2.11;75.75
70521;BME280;58442;52.716;23.560;2024-02-15T00:29:00;102221.63;;;2.10;75.75
70521;BME280;58442;52.716;23.560;2024-02-15T00:29:11;102228.60;;;2.11;75.76
70521;BME280;58442;52.716;23.560;2024-02-15T00:29:23;102225.91;;;2.11;75.76
70521;BME280;58442;52.716;23.560;2024-02-15T00:29:39;102231.54;;;2.09;75.78
70521;BME280;58442;52.716;23.560;2024-02-15T00:29:51;102226.18;;;2.09;75.76
70521;BME280;58442;52.716;23.560;2024-02-15T00:30:03;102227.79;;;2.10;75.77
70521;BME280;58442;52.716;23.560;2024-02-15T00:30:17;102225.11;;;2.10;75.78
70521;BME280;58442;52.716;23.560;2024-02-15T00:30:29;102227.79;;;2.10;75.78
70521;BME280;58442;52.716;23.560;2024-02-15T00:30:40;102227.79;;;2.10;75.78
70521;BME280;58442;52.716;23.560;2024-02-15T00:30:51;102219.75;;;2.10;75.78
70521;BME280;58442;52.716;23.560;2024-02-15T00:31:02;102220.82;;;2.09;75.78
70521;BME280;58442;52.716;23.560;2024-02-15T00:31:14;102224.30;;;2.10;75.79
70521;BME280;58442;52.716;23.560;2024-02-15T00:31:25;102226.98;;;2.10;75.79
70521;BME280;58442;52.716;23.560;2024-02-15T00:31:37;102218.39;;;2.08;75.91
70521;BME280;58442;52.716;23.560;2024-02-15T00:31:49;102220.82;;;2.09;75.79
70521;BME280;58442;52.716;23.560;2024-02-15T00:32:00;102226.18;;;2.09;75.79
70521;BME280;58442;52.716;23.560;2024-02-15T00:32:14;102226.18;;;2.09;75.79
70521;BME280;58442;52.716;23.560;2024-02-15T00:32:25;102224.30;;;2.10;75.80
70521;BME280;58442;52.716;23.560;2024-02-15T00:32:36;102226.18;;;2.09;75.80
70521;BME280;58442;52.716;23.560;2024-02-15T00:32:48;102228.87;;;2.09;75.81
70521;BME280;58442;52.716;23.560;2024-02-15T00:32:59;102220.82;;;2.09;75.81
70521;BME280;58442;52.716;23.560;2024-02-15T00:33:13;102220.82;;;2.09;75.82
70521;BME280;58442;52.716;23.560;2024-02-15T00:33:24;102226.98;;;2.10;75.81
70521;BME280;58442;52.716;23.560;2024-02-15T00:33:36;102230.73;;;2.09;75.81
70521;BME280;58442;52.716;23.560;2024-02-15T00:33:47;102229.92;;;2.08;75.82
70521;BME280;58442;52.716;23.560;2024-02-15T00:33:58;102229.92;;;2.08;75.82
70521;BME280;58442;52.716;23.560;2024-02-15T00:34:10;102228.06;;;2.09;75.82
70521;BME280;58442;52.716;23.560;2024-02-15T00:34:22;102226.18;;;2.09;75.82
70521;BME280;58442;52.716;23.560;2024-02-15T00:34:33;102223.76;;;2.08;75.82
70521;BME280;58442;52.716;23.560;2024-02-15T00:34:44;102229.92;;;2.08;75.83
70521;BME280;58442;52.716;23.560;2024-02-15T00:34:55;102229.92;;;2.08;75.83
70521;BME280;58442;52.716;23.560;2024-02-15T00:35:07;102227.25;;;2.08;75.83
70521;BME280;58442;52.716;23.560;2024-02-15T00:35:20;102222.70;;;2.09;75.84
70521;BME280;58442;52.716;23.560;2024-02-15T00:35:31;102225.38;;;2.09;75.84
70521;BME280;58442;52.716;23.560;2024-02-15T00:35:42;102227.25;;;2.08;75.84
70521;BME280;58442;52.716;23.560;2024-02-15T00:35:54;102229.92;;;2.08;75.84
70521;BME280;58442;52.716;23.560;2024-02-15T00:36:05;102222.70;;;2.09;75.71
70521;BME280;58442;52.716;23.560;2024-02-15T00:36:16;102222.70;;;2.09;75.85
70521;BME280;58442;52.716;23.560;2024-02-15T00:36:28;102230.73;;;2.09;75.86
70521;BME280;58442;52.716;23.560;2024-02-15T00:36:42;102226.18;;;2.09;75.88
70521;BME280;58442;52.716;23.560;2024-02-15T00:36:55;102228.87;;;2.09;75.85
70521;BME280;58442;52.716;23.560;2024-02-15T00:37:06;102224.57;;;2.08;75.85
70521;BME280;58442;52.716;23.560;2024-02-15T00:37:17;102221.08;;;2.08;75.86
70521;BME280;58442;52.716;23.560;2024-02-15T00:37:28;102221.89;;;2.08;75.85
70521;BME280;58442;52.716;23.560;2024-02-15T00:37:42;102225.63;;;2.07;75.86
70521;BME280;58442;52.716;23.560;2024-02-15T00:37:54;102222.14;;;2.07;75.86
70521;BME280;58442;52.716;23.560;2024-02-15T00:38:06;102227.25;;;2.08;75.85
70521;BME280;58442;52.716;23.560;2024-02-15T00:38:18;102225.38;;;2.09;75.86
70521;BME280;58442;52.716;23.560;2024-02-15T00:38:31;102221.89;;;2.08;75.86
70521;BME280;58442;52.716;23.560;2024-02-15T00:38:43;102227.25;;;2.08;75.86
70521;BME280;58442;52.716;23.560;2024-02-15T00:38:54;102228.31;;;2.07;75.86
70521;BME280;58442;52.716;23.560;2024-02-15T00:39:06;102219.20;;;2.08;75.86
70521;BME280;58442;52.716;23.560;2024-02-15T00:39:19;102221.89;;;2.08;75.86
70521;BME280;58442;52.716;23.560;2024-02-15T00:39:31;102229.92;;;2.08;75.86
70521;BME280;58442;52.716;23.560;2024-02-15T00:39:42;102222.70;;;2.09;75.86
70521;BME280;58442;52.716;23.560;2024-02-15T00:39:54;102221.89;;;2.08;75.76
70521;BME280;58442;52.716;23.560;2024-02-15T00:40:06;102225.38;;;2.09;75.88
70521;BME280;58442;52.716;23.560;2024-02-15T00:40:18;102223.76;;;2.08;75.88
70521;BME280;58442;52.716;23.560;2024-02-15T00:40:31;102224.57;;;2.08;75.88
70521;BME280;58442;52.716;23.560;2024-02-15T00:40:42;102228.06;;;2.09;75.88
70521;BME280;58442;52.716;23.560;2024-02-15T00:40:54;102226.18;;;2.09;75.88
70521;BME280;58442;52.716;23.560;2024-02-15T00:41:05;102227.25;;;2.08;75.88
70521;BME280;58442;52.716;23.560;2024-02-15T00:41:16;102218.14;;;2.09;75.88
70521;BME280;58442;52.716;23.560;2024-02-15T00:41:32;102221.89;;;2.08;75.89
70521;BME280;58442;52.716;23.560;2024-02-15T00:41:44;102223.51;;;2.09;75.89
70521;BME280;58442;52.716;23.560;2024-02-15T00:41:56;102225.38;;;2.09;75.89
70521;BME280;58442;52.716;23.560;2024-02-15T00:42:07;102220.82;;;2.09;75.89
70521;BME280;58442;52.716;23.560;2024-02-15T00:42:20;102225.38;;;2.09;75.86
70521;BME280;58442;52.716;23.560;2024-02-15T00:42:31;102222.70;;;2.09;75.86
70521;BME280;58442;52.716;23.560;2024-02-15T00:42:44;102213.84;;;2.08;75.85
70521;BME280;58442;52.716;23.560;2024-02-15T00:42:56;102213.84;;;2.08;75.86
70521;BME280;58442;52.716;23.560;2024-02-15T00:43:07;102217.33;;;2.09;75.88
70521;BME280;58442;52.716;23.560;2024-02-15T00:43:18;102215.45;;;2.09;75.88
70521;BME280;58442;52.716;23.560;2024-02-15T00:43:34;102218.14;;;2.09;75.86
70521;BME280;58442;52.716;23.560;2024-02-15T00:43:46;102219.20;;;2.08;75.86
70521;BME280;58442;52.716;23.560;2024-02-15T00:43:57;102218.14;;;2.09;75.85
70521;BME280;58442;52.716;23.560;2024-02-15T00:44:09;102218.14;;;2.09;75.86
70521;BME280;58442;52.716;23.560;2024-02-15T00:44:23;102213.84;;;2.08;75.88
70521;BME280;58442;52.716;23.560;2024-02-15T00:44:35;102219.20;;;2.08;75.88
70521;BME280;58442;52.716;23.560;2024-02-15T00:44:46;102224.57;;;2.08;75.88
70521;BME280;58442;52.716;23.560;2024-02-15T00:44:57;102218.39;;;2.08;75.87
70521;BME280;58442;52.716;23.560;2024-02-15T00:45:09;102214.64;;;2.09;75.88
70521;BME280;58442;52.716;23.560;2024-02-15T00:45:20;102208.48;;;2.08;75.89
70521;BME280;58442;52.716;23.560;2024-02-15T00:45:31;102219.20;;;2.08;75.89
70521;BME280;58442;52.716;23.560;2024-02-15T00:45:42;102213.03;;;2.08;75.88
70521;BME280;58442;52.716;23.560;2024-02-15T00:45:54;102210.35;;;2.08;75.90
70521;BME280;58442;52.716;23.560;2024-02-15T00:46:05;102211.16;;;2.08;75.92
70521;BME280;58442;52.716;23.560;2024-02-15T00:46:16;102215.71;;;2.08;75.90
70521;BME280;58442;52.716;23.560;2024-02-15T00:46:27;102211.16;;;2.08;75.90
70521;BME280;58442;52.716;23.560;2024-02-15T00:46:40;102216.52;;;2.08;75.90
70521;BME280;58442;52.716;23.560;2024-02-15T00:46:52;102219.20;;;2.08;75.90
70521;BME280;58442;52.716;23.560;2024-02-15T00:47:03;102213.84;;;2.08;75.90
70521;BME280;58442;52.716;23.560;2024-02-15T00:47:15;102212.23;;;2.07;75.91
70521;BME280;58442;52.716;23.560;2024-02-15T00:47:30;102218.39;;;2.08;75.91
70521;BME280;58442;52.716;23.560;2024-02-15T00:47:41;102214.91;;;2.07;75.91
70521;BME280;58442;52.716;23.560;2024-02-15T00:47:53;102215.71;;;2.08;75.93
70521;BME280;58442;52.716;23.560;2024-02-15T00:48:06;102215.98;;;2.06;75.94
70521;BME280;58442;52.716;23.560;2024-02-15T00:48:18;102218.39;;;2.08;75.93
70521;BME280;58442;52.716;23.560;2024-02-15T00:48:29;102218.39;;;2.08;75.93
70521;BME280;58442;52.716;23.560;2024-02-15T00:48:40;102213.84;;;2.08;75.93
70521;BME280;58442;52.716;23.560;2024-02-15T00:48:51;102219.20;;;2.08;75.93
70521;BME280;58442;52.716;23.560;2024-02-15T00:49:03;102216.52;;;2.08;75.93
70521;BME280;58442;52.716;23.560;2024-02-15T00:49:17;102220.82;;;2.09;75.93
70521;BME280;58442;52.716;23.560;2024-02-15T00:49:31;102219.20;;;2.08;75.93
70521;BME280;58442;52.716;23.560;2024-02-15T00:49:43;102213.84;;;2.08;75.93
70521;BME280;58442;52.716;23.560;2024-02-15T00:49:55;102218.39;;;2.08;75.93
70521;BME280;58442;52.716;23.560;2024-02-15T00:50:08;102217.59;;;2.07;75.92
70521;BME280;58442;52.716;23.560;2024-02-15T00:50:20;102219.20;;;2.08;75.92
70521;BME280;58442;52.716;23.560;2024-02-15T00:50:31;102213.03;;;2.08;75.93
70521;BME280;58442;52.716;23.560;2024-02-15T00:50:42;102213.84;;;2.08;75.94
70521;BME280;58442;52.716;23.560;2024-02-15T00:50:54;102213.84;;;2.08;75.94
70521;BME280;58442;52.716;23.560;2024-02-15T00:51:05;102220.02;;;2.09;75.94
70521;BME280;58442;52.716;23.560;2024-02-15T00:51:16;102224.57;;;2.08;75.94
70521;BME280;58442;52.716;23.560;2024-02-15T00:51:27;102218.39;;;2.08;75.94
70521;BME280;58442;52.716;23.560;2024-02-15T00:51:38;102219.20;;;2.08;75.95
70521;BME280;58442;52.716;23.560;2024-02-15T00:51:49;102224.57;;;2.08;75.95
70521;BME280;58442;52.716;23.560;2024-02-15T00:52:01;102225.38;;;2.09;75.95
70521;BME280;58442;52.716;23.560;2024-02-15T00:52:12;102219.20;;;2.08;75.95
70521;BME280;58442;52.716;23.560;2024-02-15T00:52:24;102219.20;;;2.08;75.95
70521;BME280;58442;52.716;23.560;2024-02-15T00:52:36;102223.51;;;2.09;75.95
70521;BME280;58442;52.716;23.560;2024-02-15T00:52:47;102222.70;;;2.09;75.98
70521;BME280;58442;52.716;23.560;2024-02-15T00:52:59;102220.02;;;2.09;75.98
70521;BME280;58442;52.716;23.560;2024-02-15T00:53:10;102226.18;;;2.09;75.96
70521;BME280;58442;52.716;23.560;2024-02-15T00:53:21;102223.51;;;2.09;75.95
70521;BME280;58442;52.716;23.560;2024-02-15T00:53:33;102214.64;;;2.09;75.96
70521;BME280;58442;52.716;23.560;2024-02-15T00:53:44;102220.55;;;2.11;75.97
70521;BME280;58442;52.716;23.560;2024-02-15T00:53:55;102214.64;;;2.09;75.95
70521;BME280;58442;52.716;23.560;2024-02-15T00:54:06;102215.45;;;2.09;75.95
70521;BME280;58442;52.716;23.560;2024-02-15T00:54:18;102218.14;;;2.09;75.95
70521;BME280;58442;52.716;23.560;2024-02-15T00:54:29;102217.07;;;2.10;75.96
70521;BME280;58442;52.716;23.560;2024-02-15T00:54:40;102219.75;;;2.10;75.95
70521;BME280;58442;52.716;23.560;2024-02-15T00:54:52;102219.75;;;2.10;75.95
70521;BME280;58442;52.716;23.560;2024-02-15T00:55:04;102222.43;;;2.10;75.95
70521;BME280;58442;52.716;23.560;2024-02-15T00:55:15;102226.18;;;2.09;75.94
70521;BME280;58442;52.716;23.560;2024-02-15T00:55:27;102222.70;;;2.09;75.93
70521;BME280;58442;52.716;23.560;2024-02-15T00:55:38;102219.75;;;2.10;75.95
70521;BME280;58442;52.716;23.560;2024-02-15T00:55:49;102219.75;;;2.10;75.95
70521;BME280;58442;52.716;23.560;2024-02-15T00:56:00;102223.51;;;2.09;75.95
70521;BME280;58442;52.716;23.560;2024-02-15T00:56:12;102222.43;;;2.10;75.96
70521;BME280;58442;52.716;23.560;2024-02-15T00:56:23;102217.07;;;2.10;75.95
70521;BME280;58442;52.716;23.560;2024-02-15T00:56:35;102217.07;;;2.10;75.95
70521;BME280;58442;52.716;23.560;2024-02-15T00:56:46;102222.43;;;2.10;75.96
70521;BME280;58442;52.716;23.560;2024-02-15T00:56:58;102228.60;;;2.11;75.96
70521;BME280;58442;52.716;23.560;2024-02-15T00:57:09;102217.07;;;2.10;75.96
70521;BME280;58442;52.716;23.560;2024-02-15T00:57:20;102220.02;;;2.09;75.95
70521;BME280;58442;52.716;23.560;2024-02-15T00:57:32;102220.82;;;2.09;75.95
70521;BME280;58442;52.716;23.560;2024-02-15T00:57:43;102217.07;;;2.10;75.97
70521;BME280;58442;52.716;23.560;2024-02-15T00:57:54;102221.63;;;2.10;75.96
70521;BME280;58442;52.716;23.560;2024-02-15T00:58:05;102223.51;;;2.09;75.96
70521;BME280;58442;52.716;23.560;2024-02-15T00:58:16;102218.14;;;2.09;75.99
70521;BME280;58442;52.716;23.560;2024-02-15T00:58:27;102221.63;;;2.10;75.98
70521;BME280;58442;52.716;23.560;2024-02-15T00:58:39;102222.43;;;2.10;76.03
70521;BME280;58442;52.716;23.560;2024-02-15T00:58:50;102222.43;;;2.10;75.98
70521;BME280;58442;52.716;23.560;2024-02-15T00:59:01;102227.79;;;2.10;75.97
70521;BME280;58442;52.716;23.560;2024-02-15T00:59:13;102218.68;;;2.11;75.96
70521;BME280;58442;52.716;23.560;2024-02-15T00:59:25;102219.75;;;2.10;75.97
70521;BME280;58442;52.716;23.560;2024-02-15T00:59:36;102222.43;;;2.10;75.97
70521;BME280;58442;52.716;23.560;2024-02-15T00:59:47;102222.43;;;2.10;75.98
70521;BME280;58442;52.716;23.560;2024-02-15T00:59:59;102223.23;;;2.11;75.98
70521;BME280;58442;52.716;23.560;2024-02-15T01:00:14;102221.36;;;2.11;75.97
70521;BME280;58442;52.716;23.560;2024-02-15T01:00:25;102222.43;;;2.10;75.98
70521;BME280;58442;52.716;23.560;2024-02-15T01:00:36;102219.75;;;2.10;75.99
70521;BME280;58442;52.716;23.560;2024-02-15T01:00:49;102223.23;;;2.11;75.99
70521;BME280;58442;52.716;23.560;2024-02-15T01:01:00;102217.07;;;2.10;75.99
70521;BME280;58442;52.716;23.560;2024-02-15T01:01:11;102223.23;;;2.11;75.99
70521;BME280;58442;52.716;23.560;2024-02-15T01:01:23;102220.55;;;2.11;75.99
70521;BME280;58442;52.716;23.560;2024-02-15T01:01:34;102222.43;;;2.10;75.99
70521;BME280;58442;52.716;23.560;2024-02-15T01:01:48;102218.68;;;2.11;75.99
70521;BME280;58442;52.716;23.560;2024-02-15T01:01:59;102217.07;;;2.10;75.99
70521;BME280;58442;52.716;23.560;2024-02-15T01:02:11;102219.75;;;2.10;76.00